Terminal Aerodrome Forecast
Issued by NWS

Home | Current Version | Previous Version | Text Only | Print | Product List | Glossary On
Versions: 1 2 3 4 5 6 7 8 9 10 11 12 13 14
647
FTUS44 KLZK 141903 AAA
TAFPBF
TAF AMD
KPBF 141903Z 1419/1518 19010G18KT P6SM VCSH SCT025 BKN060
      TEMPO 1422/1502 BKN025
     FM150200 18006KT P6SM VCSH SCT007 OVC020
      TEMPO 1502/1506 5SM -SHRA BR OVC007
     FM150600 VRB05KT 4SM -SHRA BR VCTS OVC012CB
      TEMPO 1510/1514 2SM SHRA BR OVC007
     FM151400 02008KT 5SM -SHRA OVC007=

USA.gov is the U.S. government's official web portal to all federal, state and local government web resources and services.